createdAt,value
2022-07-29T00:00:52.830Z,1.15
2022-07-29T00:03:19.629Z,1.20
2022-07-29T00:05:46.378Z,1.52
2022-07-29T00:08:13.123Z,1.60
2022-07-29T00:10:39.911Z,1.60
2022-07-29T00:13:06.592Z,2.00
2022-07-29T00:15:33.448Z,1.45
2022-07-29T00:18:00.136Z,1.42
2022-07-29T00:20:26.884Z,1.15
2022-07-29T00:22:54.193Z,1.40
2022-07-29T00:25:21.199Z,1.15
2022-07-29T00:27:47.976Z,1.67
2022-07-29T00:30:14.684Z,1.50
2022-07-29T00:32:41.465Z,1.38
2022-07-29T00:35:27.283Z,1.50
2022-07-29T00:37:53.957Z,1.35
2022-07-29T00:40:23.623Z,1.33
2022-07-29T00:42:53.327Z,1.60
2022-07-29T00:45:21.106Z,1.50
2022-07-29T00:47:47.845Z,1.50
2022-07-29T00:50:15.111Z,1.73
2022-07-29T00:52:43.052Z,1.50
2022-07-29T00:55:13.774Z,1.60
2022-07-29T00:57:41.832Z,1.65
2022-07-29T01:00:11.392Z,1.60
2022-07-29T01:02:38.173Z,1.63
2022-07-29T01:05:06.830Z,1.40
2022-07-29T01:07:35.416Z,1.42
2022-07-29T01:10:06.611Z,1.80
2022-07-29T01:12:34.797Z,1.30
2022-07-29T01:15:02.919Z,1.42
2022-07-29T01:17:53.323Z,1.60
2022-07-29T01:20:56.018Z,1.45
2022-07-29T01:23:45.087Z,1.42
2022-07-29T01:26:33.051Z,1.48
2022-07-29T01:29:09.597Z,1.40
2022-07-29T01:32:00.837Z,1.45
2022-07-29T01:34:35.920Z,1.30
2022-07-29T01:37:07.832Z,1.50
2022-07-29T01:39:36.605Z,1.75
2022-07-29T01:42:29.005Z,1.55
2022-07-29T01:45:12.392Z,1.60
2022-07-29T01:47:54.506Z,1.33
2022-07-29T01:50:25.967Z,1.73
2022-07-29T01:52:57.937Z,1.38
2022-07-29T01:55:29.189Z,1.45
2022-07-29T01:57:57.708Z,1.55
2022-07-29T02:00:24.823Z,2.90
2022-07-29T02:02:51.873Z,1.30
2022-07-29T02:05:20.257Z,1.20
2022-07-29T02:07:48.524Z,1.30
2022-07-29T02:10:15.863Z,1.20
2022-07-29T02:12:43.701Z,1.63
2022-07-29T02:15:17.889Z,1.70
2022-07-29T02:17:53.542Z,1.50
2022-07-29T02:20:20.371Z,1.20
2022-07-29T02:22:47.690Z,1.65
2022-07-29T02:25:14.900Z,1.67
2022-07-29T02:27:42.397Z,1.95
2022-07-29T02:30:10.973Z,2.00
2022-07-29T02:32:38.992Z,2.20
2022-07-29T02:35:09.559Z,1.60
2022-07-29T02:37:37.579Z,1.63
2022-07-29T02:40:05.171Z,1.92
2022-07-29T02:42:32.417Z,1.55
2022-07-29T02:44:59.160Z,2.08
2022-07-29T02:47:41.900Z,1.95
2022-07-29T02:50:13.550Z,1.65
2022-07-29T02:52:44.785Z,1.40
2022-07-29T02:55:20.413Z,1.50
2022-07-29T02:58:02.176Z,1.52
2022-07-29T03:00:31.151Z,1.88
2022-07-29T03:03:00.903Z,1.67
2022-07-29T03:05:28.479Z,1.70
2022-07-29T03:08:02.023Z,1.70
2022-07-29T03:10:28.831Z,1.73
2022-07-29T03:12:56.745Z,1.40
2022-07-29T03:15:24.763Z,1.70
2022-07-29T03:17:52.995Z,1.67
2022-07-29T03:20:19.917Z,1.63
2022-07-29T03:22:49.272Z,1.70
2022-07-29T03:25:18.002Z,1.70
2022-07-29T03:27:45.031Z,2.00
2022-07-29T03:30:13.132Z,1.50
2022-07-29T03:32:47.036Z,1.83
2022-07-29T03:35:14.303Z,1.60
2022-07-29T03:37:40.974Z,1.50
2022-07-29T03:40:10.113Z,1.70
2022-07-29T03:42:39.288Z,2.00
2022-07-29T03:45:13.492Z,1.40
2022-07-29T03:47:50.106Z,1.40
2022-07-29T03:50:18.109Z,1.90
2022-07-29T03:52:45.442Z,1.80
2022-07-29T03:55:12.757Z,2.20
2022-07-29T03:57:41.040Z,1.80
2022-07-29T04:00:08.995Z,1.77
2022-07-29T04:02:37.409Z,1.70
2022-07-29T04:05:04.413Z,1.85
2022-07-29T04:07:31.425Z,1.50
2022-07-29T04:09:58.386Z,1.80
2022-07-29T04:12:26.123Z,1.60
2022-07-29T04:14:53.362Z,1.42
2022-07-29T04:17:20.761Z,1.92
2022-07-29T04:19:47.757Z,1.60
2022-07-29T04:22:14.396Z,1.67
2022-07-29T04:24:44.297Z,2.00
2022-07-29T04:27:11.458Z,1.90
2022-07-29T04:29:38.197Z,1.50
2022-07-29T04:32:24.293Z,1.80
2022-07-29T04:34:51.252Z,2.08
2022-07-29T04:37:18.436Z,1.50
2022-07-29T04:39:45.655Z,1.80
2022-07-29T04:42:12.571Z,1.60
2022-07-29T04:44:43.015Z,1.77
2022-07-29T04:47:10.281Z,1.88
2022-07-29T04:49:39.883Z,1.60
2022-07-29T04:52:07.274Z,1.60
2022-07-29T04:54:34.667Z,1.80
2022-07-29T04:57:01.707Z,2.00
2022-07-29T04:59:28.946Z,1.70
2022-07-29T05:01:55.794Z,1.90
2022-07-29T05:04:22.839Z,1.90
2022-07-29T05:06:50.338Z,1.48
2022-07-29T05:09:17.462Z,1.77
2022-07-29T05:11:45.032Z,1.77
2022-07-29T05:14:12.004Z,1.65
2022-07-29T05:16:41.134Z,1.80
2022-07-29T05:19:13.961Z,1.60
2022-07-29T05:21:41.244Z,1.77
2022-07-29T05:24:08.601Z,1.95
2022-07-29T05:26:35.483Z,1.60
2022-07-29T05:29:02.331Z,1.77
2022-07-29T05:31:29.287Z,1.90
2022-07-29T05:33:56.034Z,2.25
2022-07-29T05:36:22.788Z,2.28
2022-07-29T05:38:49.612Z,1.80
2022-07-29T05:41:16.305Z,1.67
2022-07-29T05:43:43.023Z,1.83
2022-07-29T05:46:09.790Z,2.00
2022-07-29T05:48:36.756Z,1.58
2022-07-29T05:51:03.757Z,1.67
2022-07-29T05:53:30.565Z,1.58
2022-07-29T05:55:57.553Z,1.90
2022-07-29T05:58:24.367Z,1.77
2022-07-29T06:00:51.128Z,1.95
2022-07-29T06:03:17.951Z,1.70
2022-07-29T06:05:45.130Z,1.50
2022-07-29T06:08:12.507Z,1.90
2022-07-29T06:10:39.643Z,1.70
2022-07-29T06:13:06.444Z,1.60
2022-07-29T06:15:33.436Z,1.60
2022-07-29T06:18:01.501Z,1.48
2022-07-29T06:20:31.845Z,1.83
2022-07-29T06:22:59.305Z,1.80
2022-07-29T06:25:26.243Z,1.80
2022-07-29T06:27:53.314Z,1.45
2022-07-29T06:30:20.138Z,1.60
2022-07-29T06:32:47.254Z,1.40
2022-07-29T06:38:00.860Z,1.63
2022-07-29T06:40:46.265Z,1.60
2022-07-29T06:43:13.074Z,1.80
2022-07-29T06:45:42.266Z,2.17
2022-07-29T06:48:10.162Z,1.90
2022-07-29T06:50:36.901Z,1.80
2022-07-29T06:53:05.100Z,1.55
2022-07-29T06:55:31.966Z,1.70
2022-07-29T06:57:58.634Z,1.90
2022-07-29T07:00:25.399Z,1.80
2022-07-29T07:02:52.189Z,1.85
2022-07-29T07:05:19.122Z,1.60
2022-07-29T07:07:45.799Z,1.50
2022-07-29T07:10:12.504Z,1.73
2022-07-29T07:12:39.370Z,1.98
2022-07-29T07:15:06.823Z,1.95
2022-07-29T07:17:33.643Z,2.20
2022-07-29T07:20:00.342Z,1.48
2022-07-29T07:22:27.069Z,1.52
2022-07-29T07:24:53.782Z,1.50
2022-07-29T07:27:20.464Z,1.55
2022-07-29T07:29:47.173Z,1.42
2022-07-29T07:32:14.530Z,1.70
2022-07-29T07:34:41.388Z,1.65
2022-07-29T07:37:08.071Z,1.60
2022-07-29T07:39:34.849Z,1.80
2022-07-29T07:42:01.575Z,1.58
2022-07-29T07:44:28.352Z,1.40
2022-07-29T07:46:55.120Z,1.70
2022-07-29T07:49:22.280Z,1.58
2022-07-29T07:51:50.705Z,1.40
2022-07-29T07:54:18.916Z,1.33
2022-07-29T07:56:50.836Z,1.40
2022-07-29T07:59:20.455Z,1.42
2022-07-29T08:01:55.608Z,1.30
2022-07-29T08:04:28.145Z,1.50
2022-07-29T08:06:57.299Z,1.40
2022-07-29T08:09:31.184Z,1.38
2022-07-29T08:11:59.082Z,1.60
2022-07-29T08:14:26.096Z,1.67
2022-07-29T08:16:53.304Z,1.88
2022-07-29T08:19:20.247Z,1.55
2022-07-29T08:21:57.105Z,1.65
2022-07-29T08:24:44.901Z,1.55
2022-07-29T08:27:33.447Z,1.67
2022-07-29T08:29:59.079Z,1.45
2022-07-29T08:32:50.955Z,1.45
2022-07-29T08:35:12.709Z,1.40
2022-07-29T08:37:39.492Z,1.52
2022-07-29T08:40:07.300Z,1.58
2022-07-29T08:42:34.021Z,1.60
2022-07-29T08:45:00.853Z,1.60
2022-07-29T08:47:28.824Z,1.52
2022-07-29T08:49:55.650Z,1.70
2022-07-29T08:52:22.897Z,1.40
2022-07-29T08:54:49.755Z,1.30
2022-07-29T08:57:17.870Z,1.63
2022-07-29T08:59:47.610Z,1.70
2022-07-29T09:02:22.507Z,1.40
2022-07-29T09:04:49.935Z,1.40
2022-07-29T09:07:18.788Z,1.55
2022-07-29T09:09:45.670Z,1.38
2022-07-29T09:12:13.055Z,1.38
2022-07-29T09:14:55.816Z,1.58
2022-07-29T09:17:46.651Z,1.85
2022-07-29T09:20:17.749Z,1.67
2022-07-29T09:22:45.179Z,1.33
2022-07-29T09:25:13.588Z,2.72
2022-07-29T09:27:40.500Z,1.88
2022-07-29T09:30:11.658Z,1.60
2022-07-29T09:32:59.304Z,1.23
2022-07-29T09:35:29.992Z,1.70
2022-07-29T09:37:57.536Z,1.45
2022-07-29T09:40:27.002Z,1.50
2022-07-29T09:42:57.929Z,1.65
2022-07-29T09:45:28.596Z,1.50
2022-07-29T09:47:56.764Z,1.60
2022-07-29T09:50:26.751Z,1.60
2022-07-29T09:52:54.620Z,1.80
2022-07-29T09:55:21.381Z,1.95
2022-07-29T09:57:48.840Z,2.00
2022-07-29T10:00:19.056Z,2.40
2022-07-29T10:02:47.738Z,1.65
2022-07-29T10:05:23.275Z,1.77
2022-07-29T10:07:58.109Z,2.03
2022-07-29T10:10:27.756Z,1.83
2022-07-29T10:12:57.115Z,1.80
2022-07-29T10:15:27.958Z,1.77
2022-07-29T10:17:56.974Z,2.10
2022-07-29T10:20:24.849Z,2.25
2022-07-29T10:22:53.882Z,1.90
2022-07-29T10:25:21.495Z,2.03
2022-07-29T10:27:49.116Z,2.08
2022-07-29T10:30:19.317Z,1.90
2022-07-29T10:32:55.099Z,1.90
2022-07-29T10:35:31.795Z,2.42
2022-07-29T10:38:17.646Z,2.30
2022-07-29T10:41:12.633Z,2.00
2022-07-29T10:43:47.661Z,2.28
2022-07-29T10:46:19.555Z,2.45
2022-07-29T10:49:08.935Z,2.38
2022-07-29T10:51:51.502Z,2.28
2022-07-29T10:54:48.691Z,2.38
2022-07-29T10:57:21.717Z,2.22
2022-07-29T11:00:02.229Z,2.20
2022-07-29T11:02:42.334Z,2.35
2022-07-29T11:05:19.861Z,2.22
2022-07-29T11:08:20.157Z,2.58
2022-07-29T11:10:49.839Z,2.38
2022-07-29T11:13:44.774Z,1.83
2022-07-29T11:16:16.168Z,2.67
2022-07-29T11:19:15.851Z,2.17
2022-07-29T11:21:58.296Z,2.17
2022-07-29T11:24:37.302Z,2.53
2022-07-29T11:27:23.176Z,2.38
2022-07-29T11:29:52.315Z,3.08
2022-07-29T11:32:23.188Z,2.28
2022-07-29T11:35:17.208Z,2.35
2022-07-29T11:37:52.413Z,2.33
2022-07-29T11:40:35.872Z,2.78
2022-07-29T11:43:02.817Z,2.42
2022-07-29T11:46:01.289Z,2.55
2022-07-29T11:48:32.356Z,2.67
2022-07-29T11:51:03.251Z,2.70
2022-07-29T11:53:32.554Z,3.00
2022-07-29T11:56:00.568Z,2.88
2022-07-29T11:58:32.572Z,2.30
2022-07-29T12:01:04.572Z,2.33
2022-07-29T12:03:35.546Z,2.85
2022-07-29T12:06:13.533Z,2.63
2022-07-29T12:08:44.467Z,2.30
2022-07-29T12:11:21.331Z,2.88
2022-07-29T12:14:01.404Z,3.05
2022-07-29T12:16:38.250Z,2.75
2022-07-29T12:19:05.487Z,2.60
2022-07-29T12:21:56.341Z,2.83
2022-07-29T12:24:26.865Z,2.58
2022-07-29T12:27:00.491Z,2.42
2022-07-29T12:29:34.591Z,2.55
2022-07-29T12:32:03.429Z,2.85
2022-07-29T12:34:30.693Z,2.63
2022-07-29T12:36:57.686Z,3.05
2022-07-29T12:39:27.726Z,3.50
2022-07-29T12:42:04.861Z,3.17
2022-07-29T12:44:49.951Z,2.63
2022-07-29T12:47:19.078Z,3.05
2022-07-29T12:49:48.443Z,2.58
2022-07-29T12:52:32.560Z,3.15
2022-07-29T12:54:59.865Z,3.25
2022-07-29T12:57:26.916Z,3.60
2022-07-29T13:00:09.112Z,3.38
2022-07-29T13:02:35.948Z,3.30
2022-07-29T13:05:05.747Z,3.63
2022-07-29T13:07:54.937Z,3.00
2022-07-29T13:10:24.159Z,2.95
2022-07-29T13:13:16.948Z,3.53
2022-07-29T13:15:45.648Z,3.30
2022-07-29T13:18:33.067Z,3.10
2022-07-29T13:21:12.794Z,3.42
2022-07-29T13:23:39.947Z,3.72
2022-07-29T13:26:17.364Z,3.13
2022-07-29T13:28:44.470Z,3.50
2022-07-29T13:31:13.260Z,3.63
2022-07-29T13:33:41.154Z,3.38
2022-07-29T13:36:07.973Z,3.28
2022-07-29T13:38:34.973Z,3.42
2022-07-29T13:41:02.559Z,3.78
2022-07-29T13:43:30.116Z,3.17
2022-07-29T13:45:57.373Z,3.70
2022-07-29T13:48:24.219Z,3.42
2022-07-29T13:50:51.032Z,3.72
2022-07-29T13:53:18.230Z,3.20
2022-07-29T13:55:45.313Z,3.50
2022-07-29T13:58:12.103Z,4.05
2022-07-29T14:00:38.817Z,3.80
2022-07-29T14:03:05.622Z,3.88
2022-07-29T14:05:32.385Z,3.38
2022-07-29T14:07:59.287Z,2.97
2022-07-29T14:10:26.215Z,2.78
2022-07-29T14:12:55.594Z,2.55
2022-07-29T14:15:22.532Z,2.70
2022-07-29T14:17:49.247Z,2.58
2022-07-29T14:20:17.254Z,2.60
2022-07-29T14:22:45.273Z,2.85
2022-07-29T14:25:15.017Z,2.75
2022-07-29T14:27:44.265Z,2.53
2022-07-29T14:30:11.380Z,2.90
2022-07-29T14:32:38.340Z,3.00
2022-07-29T14:35:06.182Z,2.40
2022-07-29T14:37:40.624Z,2.20
2022-07-29T14:40:08.916Z,2.05
2022-07-29T14:42:37.039Z,2.72
2022-07-29T14:45:06.541Z,2.30
2022-07-29T14:47:33.216Z,2.78
2022-07-29T14:49:59.991Z,2.47
2022-07-29T14:52:26.941Z,2.85
2022-07-29T14:54:53.596Z,2.03
2022-07-29T14:57:20.770Z,2.63
2022-07-29T14:59:47.471Z,2.28
2022-07-29T15:02:14.281Z,2.88
2022-07-29T15:04:41.019Z,2.40
2022-07-29T15:07:07.716Z,2.40
2022-07-29T15:09:40.138Z,2.35
2022-07-29T15:12:10.882Z,2.28
2022-07-29T15:14:37.642Z,2.67
2022-07-29T15:17:04.470Z,2.45
2022-07-29T15:19:31.784Z,2.55
2022-07-29T15:21:59.700Z,2.33
2022-07-29T15:24:26.632Z,2.45
2022-07-29T15:26:53.473Z,1.83
2022-07-29T15:29:20.911Z,2.20
2022-07-29T15:31:47.671Z,2.03
2022-07-29T15:34:14.648Z,1.90
2022-07-29T15:36:54.043Z,1.90
2022-07-29T15:39:21.920Z,1.83
2022-07-29T15:41:48.775Z,1.67
2022-07-29T15:44:17.376Z,1.63
2022-07-29T15:47:02.956Z,2.17
2022-07-29T15:49:48.667Z,1.90
2022-07-29T15:52:26.060Z,2.00
2022-07-29T15:54:54.992Z,1.77
2022-07-29T15:57:31.512Z,2.40
2022-07-29T15:59:58.380Z,1.95
2022-07-29T16:02:25.296Z,1.77
2022-07-29T16:04:52.048Z,2.00
2022-07-29T16:07:18.907Z,2.35
2022-07-29T16:09:51.017Z,1.90
2022-07-29T16:12:19.892Z,2.50
2022-07-29T16:14:49.449Z,2.13
2022-07-29T16:17:17.079Z,2.63
2022-07-29T16:19:44.643Z,2.30
2022-07-29T16:22:14.686Z,2.00
2022-07-29T16:24:43.210Z,2.10
2022-07-29T16:27:10.060Z,1.92
2022-07-29T16:29:37.439Z,2.05
2022-07-29T16:32:05.654Z,2.40
2022-07-29T16:34:32.651Z,2.10
2022-07-29T16:36:59.793Z,2.08
2022-07-29T16:39:26.823Z,2.10
2022-07-29T16:41:56.963Z,2.08
2022-07-29T16:44:26.392Z,2.00
2022-07-29T16:46:55.974Z,2.35
2022-07-29T16:49:24.264Z,2.70
2022-07-29T16:51:51.187Z,2.50
2022-07-29T16:54:18.023Z,2.35
2022-07-29T16:56:44.770Z,2.00
2022-07-29T16:59:11.723Z,2.20
2022-07-29T17:01:38.396Z,2.50
2022-07-29T17:04:07.990Z,2.20
2022-07-29T17:06:41.992Z,1.95
2022-07-29T17:09:10.920Z,2.60
2022-07-29T17:11:54.078Z,2.13
2022-07-29T17:14:46.446Z,2.28
2022-07-29T17:17:20.669Z,2.00
2022-07-29T17:20:07.509Z,2.25
2022-07-29T17:25:24.487Z,2.45
2022-07-29T17:27:51.629Z,2.10
2022-07-29T17:33:18.759Z,2.22
2022-07-29T17:39:07.800Z,2.35
2022-07-29T17:41:36.754Z,2.47
2022-07-29T17:44:05.140Z,2.42
2022-07-29T17:46:39.170Z,2.10
2022-07-29T17:49:08.153Z,2.13
2022-07-29T17:55:10.663Z,2.60
2022-07-29T18:03:57.189Z,2.33
2022-07-29T18:07:03.666Z,2.30
2022-07-29T18:12:47.224Z,2.70
2022-07-29T18:17:57.792Z,2.47
2022-07-29T18:20:28.647Z,2.47
2022-07-29T18:22:55.387Z,2.20
2022-07-29T18:25:22.303Z,2.33
2022-07-29T18:27:51.688Z,2.30
2022-07-29T18:30:23.336Z,3.03
2022-07-29T18:33:11.375Z,2.05
2022-07-29T18:35:36.872Z,2.45
2022-07-29T18:38:03.736Z,2.38
2022-07-29T18:40:32.675Z,2.72
2022-07-29T18:42:59.348Z,2.33
2022-07-29T18:45:28.531Z,2.72
2022-07-29T18:47:56.630Z,2.58
2022-07-29T18:50:28.965Z,2.72
2022-07-29T18:52:59.120Z,2.63
2022-07-29T18:55:29.614Z,2.60
2022-07-29T18:57:57.436Z,2.42
2022-07-29T19:00:25.195Z,2.90
2022-07-29T19:02:52.869Z,2.67
2022-07-29T19:05:20.125Z,3.17
2022-07-29T19:07:46.996Z,3.03
2022-07-29T19:10:13.813Z,2.88
2022-07-29T19:12:40.600Z,2.63
2022-07-29T19:15:20.238Z,2.50
2022-07-29T19:17:48.516Z,2.40
2022-07-29T19:20:15.740Z,2.58
2022-07-29T19:22:42.463Z,2.60
2022-07-29T19:25:10.073Z,3.03
2022-07-29T19:27:38.902Z,2.88
2022-07-29T19:30:11.639Z,2.90
2022-07-29T19:32:38.844Z,2.40
2022-07-29T19:35:24.383Z,2.53
2022-07-29T19:37:53.048Z,2.88
2022-07-29T19:40:20.031Z,2.42
2022-07-29T19:43:00.660Z,3.42
2022-07-29T19:45:29.089Z,3.03
2022-07-29T19:50:44.331Z,3.20
2022-07-29T19:53:12.479Z,3.00
2022-07-29T19:55:39.528Z,3.05
2022-07-29T19:58:07.371Z,2.75
2022-07-29T20:00:36.838Z,3.17
2022-07-29T20:03:08.223Z,3.03
2022-07-29T20:05:35.089Z,2.97
2022-07-29T20:08:05.583Z,3.70
2022-07-29T20:10:33.751Z,3.20
2022-07-29T20:13:00.607Z,3.13
2022-07-29T20:15:27.417Z,3.55
2022-07-29T20:17:59.415Z,3.45
2022-07-29T20:20:26.349Z,4.65
2022-07-29T20:22:54.214Z,5.40
2022-07-29T20:25:21.070Z,4.20
2022-07-29T20:27:50.472Z,4.80
2022-07-29T20:30:17.754Z,4.55
2022-07-29T20:32:45.279Z,4.60
2022-07-29T20:35:13.668Z,5.07
2022-07-29T20:37:52.449Z,5.80
2022-07-29T20:40:24.930Z,6.78
2022-07-29T20:42:55.440Z,6.30
2022-07-29T20:45:23.797Z,7.00
2022-07-29T20:47:53.009Z,5.47
2022-07-29T20:50:23.374Z,6.10
2022-07-29T20:52:51.752Z,6.25
2022-07-29T20:55:18.749Z,6.53
2022-07-29T20:57:45.573Z,6.65
2022-07-29T21:00:15.574Z,6.65
2022-07-29T21:05:23.977Z,6.30
2022-07-29T21:07:52.540Z,5.65
2022-07-29T21:10:33.320Z,4.97
2022-07-29T21:13:00.172Z,5.15
2022-07-29T21:15:29.484Z,5.95
2022-07-29T21:18:03.896Z,6.00
2022-07-29T21:20:32.758Z,5.68
2022-07-29T21:23:00.347Z,5.65
2022-07-29T21:25:27.445Z,5.85
2022-07-29T21:28:12.776Z,6.45
2022-07-29T21:30:39.533Z,6.57
2022-07-29T21:33:06.275Z,5.55
2022-07-29T21:38:16.365Z,6.22
2022-07-29T21:40:44.829Z,6.18
2022-07-29T21:43:11.595Z,5.65
2022-07-29T21:45:41.788Z,5.10
2022-07-29T21:48:09.495Z,4.43
2022-07-29T21:50:55.287Z,4.53
2022-07-29T21:53:22.974Z,4.32
2022-07-29T21:55:53.668Z,4.70
2022-07-29T21:58:22.883Z,4.30
2022-07-29T22:03:30.794Z,4.95
2022-07-29T22:05:58.388Z,4.10
2022-07-29T22:08:25.145Z,4.30
2022-07-29T22:10:51.937Z,4.43
2022-07-29T22:13:20.709Z,4.50
2022-07-29T22:15:47.502Z,5.03
2022-07-29T22:18:20.757Z,4.97
2022-07-29T22:20:51.615Z,4.30
2022-07-29T22:23:18.404Z,4.20
2022-07-29T22:25:45.207Z,4.38
2022-07-29T22:28:12.423Z,3.90
2022-07-29T22:30:39.296Z,4.40
2022-07-29T22:33:06.109Z,4.05
2022-07-29T22:35:44.473Z,4.88
2022-07-29T22:38:11.639Z,5.00
2022-07-29T22:40:38.517Z,5.00
2022-07-29T22:43:06.171Z,4.72
2022-07-29T22:45:34.272Z,4.78
2022-07-29T22:48:01.006Z,4.70
2022-07-29T22:53:08.625Z,5.10
2022-07-29T22:55:35.498Z,5.00
2022-07-29T22:58:02.309Z,5.10
2022-07-29T23:00:29.067Z,5.25
2022-07-29T23:02:55.726Z,5.72
2022-07-29T23:05:22.451Z,5.18
2022-07-29T23:07:49.131Z,5.65
2022-07-29T23:10:16.444Z,4.97
2022-07-29T23:12:43.126Z,5.30
2022-07-29T23:15:09.856Z,5.32
2022-07-29T23:17:37.002Z,5.10
2022-07-29T23:20:09.802Z,5.82
2022-07-29T23:22:36.742Z,5.30
2022-07-29T23:25:04.992Z,5.35
2022-07-29T23:27:31.794Z,6.43
2022-07-29T23:29:58.498Z,5.35
2022-07-29T23:32:25.235Z,5.18
2022-07-29T23:34:51.849Z,5.97
2022-07-29T23:37:18.575Z,6.07
2022-07-29T23:39:45.234Z,6.22
2022-07-29T23:42:11.895Z,5.70
2022-07-29T23:44:38.653Z,6.63
2022-07-29T23:47:05.478Z,5.72
2022-07-29T23:49:32.268Z,5.78
2022-07-29T23:51:58.948Z,5.95
2022-07-29T23:54:25.601Z,5.93
2022-07-29T23:56:52.279Z,7.28
2022-07-29T23:59:19.085Z,6.55
